createdAt,value
2023-01-21T00:01:03.024Z,29.00
2023-01-21T00:03:29.876Z,29.30
2023-01-21T00:05:58.314Z,28.60
2023-01-21T00:08:25.807Z,28.60
2023-01-21T00:10:52.801Z,28.60
2023-01-21T00:13:19.578Z,29.00
2023-01-21T00:15:46.451Z,28.80
2023-01-21T00:18:13.360Z,29.10
2023-01-21T00:20:40.228Z,28.90
2023-01-21T00:23:07.063Z,28.70
2023-01-21T00:25:33.851Z,29.00
2023-01-21T00:28:00.640Z,29.00
2023-01-21T00:30:27.551Z,29.20
2023-01-21T00:32:54.341Z,28.90
2023-01-21T00:35:21.123Z,29.10
2023-01-21T00:37:47.950Z,28.90
2023-01-21T00:40:15.086Z,29.10
2023-01-21T00:42:42.293Z,29.20
2023-01-21T00:45:10.252Z,29.20
2023-01-21T00:47:37.044Z,29.10
2023-01-21T00:50:04.542Z,29.20
2023-01-21T00:52:31.381Z,28.60
2023-01-21T00:54:58.204Z,28.60
2023-01-21T00:57:25.061Z,28.60
2023-01-21T00:59:53.504Z,28.60
2023-01-21T01:02:20.436Z,28.90
2023-01-21T01:04:47.397Z,28.90
2023-01-21T01:07:14.271Z,28.60
2023-01-21T01:09:41.058Z,28.60
2023-01-21T01:12:08.019Z,28.80
2023-01-21T01:14:34.860Z,28.80
2023-01-21T01:17:01.724Z,28.60
2023-01-21T01:19:28.598Z,28.30
2023-01-21T01:21:55.452Z,28.50
2023-01-21T01:24:22.235Z,28.60
2023-01-21T01:26:49.064Z,28.60
2023-01-21T01:29:15.921Z,28.40
2023-01-21T01:31:44.200Z,28.60
2023-01-21T01:34:11.080Z,28.80
2023-01-21T01:36:37.991Z,28.60
2023-01-21T01:39:05.643Z,28.70
2023-01-21T01:41:35.146Z,28.60
2023-01-21T01:44:04.916Z,28.60
2023-01-21T01:46:34.295Z,28.60
2023-01-21T01:49:10.270Z,28.90
2023-01-21T01:51:46.009Z,28.80
2023-01-21T01:54:16.896Z,29.00
2023-01-21T01:56:47.641Z,28.90
2023-01-21T01:59:15.469Z,28.80
2023-01-21T05:37:15.070Z,28.90
2023-01-21T05:39:41.931Z,28.90
2023-01-21T05:42:08.759Z,29.00
2023-01-21T05:44:35.569Z,29.00
2023-01-21T05:47:02.351Z,28.90
2023-01-21T05:49:29.173Z,29.10
2023-01-21T05:51:56.038Z,29.00
2023-01-21T05:54:22.836Z,29.30
2023-01-21T05:56:49.620Z,29.00
2023-01-21T05:59:16.483Z,29.10
2023-01-21T06:01:43.444Z,28.50
2023-01-21T06:04:10.258Z,28.50
2023-01-21T06:06:37.226Z,28.80
2023-01-21T06:09:04.397Z,28.50
2023-01-21T06:11:31.259Z,28.60
2023-01-21T06:13:58.549Z,28.50
2023-01-21T06:16:25.320Z,28.20
2023-01-21T06:18:52.158Z,28.40
2023-01-21T06:21:19.115Z,27.90
2023-01-21T06:23:45.908Z,28.00
2023-01-21T06:26:12.866Z,28.20
2023-01-21T06:28:39.788Z,28.10
2023-01-21T06:31:06.632Z,28.40
2023-01-21T06:33:33.611Z,28.50
2023-01-21T06:36:00.465Z,28.10
2023-01-21T06:38:27.272Z,28.10
2023-01-21T06:40:54.139Z,28.40
2023-01-21T06:43:21.049Z,27.90
2023-01-21T06:45:47.920Z,27.80
2023-01-21T06:48:14.744Z,28.00
2023-01-21T06:50:41.623Z,28.40
2023-01-21T06:53:08.405Z,28.30
2023-01-21T06:55:35.234Z,28.50
2023-01-21T06:58:02.061Z,28.20
2023-01-21T07:00:28.908Z,28.40
2023-01-21T07:02:59.720Z,28.20
2023-01-21T07:05:27.646Z,28.30
2023-01-21T07:07:56.020Z,28.50
2023-01-21T07:10:24.438Z,29.30
2023-01-21T07:12:51.583Z,28.50
2023-01-21T07:15:18.772Z,28.50
2023-01-21T07:17:45.872Z,28.50
2023-01-21T07:20:12.758Z,28.60
2023-01-21T07:22:39.810Z,28.60
2023-01-21T07:25:07.282Z,28.70
2023-01-21T07:27:34.128Z,28.80
2023-01-21T07:30:00.926Z,29.10
2023-01-21T07:32:27.719Z,28.90
2023-01-21T07:34:54.572Z,28.90
2023-01-21T07:37:21.465Z,28.60
2023-01-21T07:39:48.288Z,28.50
2023-01-21T07:42:15.260Z,28.30
2023-01-21T07:44:42.084Z,28.50
2023-01-21T07:47:10.474Z,28.60
2023-01-21T07:49:37.717Z,28.50
2023-01-21T07:52:04.639Z,28.90
2023-01-21T07:54:31.509Z,28.60
2023-01-21T07:56:58.725Z,28.60
2023-01-21T07:59:25.617Z,28.50
2023-01-21T08:01:52.542Z,27.60
2023-01-21T08:04:19.567Z,27.10
2023-01-21T08:06:46.394Z,27.00
2023-01-21T08:09:13.255Z,27.70
2023-01-21T08:11:40.141Z,26.70
2023-01-21T08:14:06.962Z,26.90
2023-01-21T08:16:33.848Z,26.80
2023-01-21T08:19:01.043Z,26.60
2023-01-21T08:21:27.973Z,26.40
2023-01-21T08:23:54.816Z,26.60
2023-01-21T08:26:23.502Z,26.50
2023-01-21T08:28:54.522Z,26.40
2023-01-21T08:31:21.594Z,26.20
2023-01-21T08:33:48.462Z,26.10
2023-01-21T08:36:17.613Z,26.20
2023-01-21T08:38:45.349Z,25.80
2023-01-21T08:41:13.493Z,25.90
2023-01-21T08:43:40.883Z,25.70
2023-01-21T08:46:07.812Z,25.40
2023-01-21T08:48:34.653Z,25.70
2023-01-21T08:51:01.675Z,25.30
2023-01-21T08:53:28.794Z,24.90
2023-01-21T08:56:00.609Z,25.10
2023-01-21T08:58:28.853Z,25.30
2023-01-21T09:00:56.479Z,24.90
2023-01-21T09:03:23.777Z,25.10
2023-01-21T09:05:55.988Z,24.80
2023-01-21T09:08:23.088Z,24.90
2023-01-21T09:11:02.104Z,25.00
2023-01-21T09:13:31.213Z,25.20
2023-01-21T09:15:58.178Z,24.90
2023-01-21T09:18:25.561Z,25.10
2023-01-21T09:20:52.379Z,24.90
2023-01-21T09:23:25.637Z,24.70
2023-01-21T09:26:15.160Z,24.90
2023-01-21T09:28:45.034Z,24.30
2023-01-21T09:31:16.955Z,24.50
2023-01-21T09:33:45.932Z,24.40
2023-01-21T09:36:15.894Z,24.40
2023-01-21T09:38:44.116Z,24.30
2023-01-21T09:41:40.799Z,24.30
2023-01-21T09:44:31.850Z,23.80
2023-01-21T09:47:21.424Z,23.70
2023-01-21T09:49:53.561Z,23.90
2023-01-21T09:52:23.101Z,23.90
2023-01-21T09:54:50.221Z,23.90
2023-01-21T09:57:34.591Z,24.20
2023-01-21T10:00:27.283Z,24.40
2023-01-21T10:03:06.086Z,23.70
2023-01-21T10:05:32.992Z,24.00
2023-01-21T10:08:19.861Z,24.00
2023-01-21T10:11:13.956Z,23.70
2023-01-21T10:14:10.227Z,24.00
2023-01-21T10:16:51.882Z,23.70
2023-01-21T10:19:28.383Z,24.20
2023-01-21T10:22:00.364Z,24.10
2023-01-21T10:24:37.077Z,23.90
2023-01-21T10:27:04.828Z,23.80
2023-01-21T10:29:44.712Z,23.50
2023-01-21T10:32:18.989Z,23.60
2023-01-21T10:34:57.295Z,23.40
2023-01-21T10:37:31.111Z,23.30
2023-01-21T10:40:14.191Z,24.10
2023-01-21T10:43:05.903Z,23.60
2023-01-21T10:45:42.895Z,23.80
2023-01-21T10:48:13.689Z,23.00
2023-01-21T10:50:56.520Z,23.60
2023-01-21T10:53:51.652Z,23.70
2023-01-21T10:56:30.415Z,23.60
2023-01-21T10:59:06.829Z,23.50
2023-01-21T11:01:38.039Z,23.00
2023-01-21T11:04:27.117Z,23.20
2023-01-21T11:07:02.925Z,23.30
2023-01-21T11:09:34.370Z,22.90
2023-01-21T11:12:03.027Z,23.80
2023-01-21T11:14:30.045Z,22.90
2023-01-21T11:16:57.897Z,22.70
2023-01-21T11:19:29.063Z,23.60
2023-01-21T11:22:12.253Z,22.80
2023-01-21T11:24:48.056Z,22.90
2023-01-21T11:27:20.828Z,23.80
2023-01-21T11:29:49.996Z,24.10
2023-01-21T11:32:22.937Z,23.00
2023-01-21T11:34:58.533Z,22.80
2023-01-21T11:37:30.546Z,22.70
2023-01-21T11:40:00.824Z,23.10
2023-01-21T11:42:27.930Z,22.30
2023-01-21T11:44:56.568Z,23.20
2023-01-21T11:47:30.437Z,22.20
2023-01-21T11:50:16.195Z,22.10
2023-01-21T11:52:43.653Z,22.00
2023-01-21T11:55:19.971Z,22.40
2023-01-21T11:57:53.832Z,22.70
2023-01-21T12:00:26.906Z,21.90
2023-01-21T12:02:58.117Z,22.40
2023-01-21T12:05:32.389Z,22.10
2023-01-21T12:08:00.598Z,21.50
2023-01-21T12:10:36.531Z,22.40
2023-01-21T12:13:17.428Z,21.90
2023-01-21T12:16:04.450Z,22.40
2023-01-21T12:18:50.041Z,21.80
2023-01-21T12:21:47.348Z,22.10
2023-01-21T12:24:51.003Z,22.30
2023-01-21T12:27:36.023Z,22.60
2023-01-21T12:30:18.217Z,21.90
2023-01-21T12:32:54.449Z,22.00
2023-01-21T12:35:53.911Z,22.20
2023-01-21T12:38:26.723Z,22.60
2023-01-21T12:41:13.206Z,22.00
2023-01-21T12:43:52.332Z,22.40
2023-01-21T12:46:29.744Z,22.30
2023-01-21T12:49:19.607Z,22.60
2023-01-21T12:51:52.182Z,22.00
2023-01-21T12:54:41.403Z,22.10
2023-01-21T12:57:41.274Z,22.00
2023-01-21T13:00:22.404Z,21.90
2023-01-21T13:02:58.251Z,21.70
2023-01-21T13:05:31.371Z,21.60
2023-01-21T13:08:03.350Z,21.50
2023-01-21T13:10:41.504Z,22.30
2023-01-21T13:13:20.872Z,21.50
2023-01-21T13:15:54.135Z,21.90
2023-01-21T13:18:30.979Z,21.90
2023-01-21T13:21:07.700Z,21.70
2023-01-21T13:23:48.568Z,22.30
2023-01-21T13:26:19.527Z,22.40
2023-01-21T13:29:17.359Z,21.60
2023-01-21T13:31:54.398Z,21.10
2023-01-21T13:34:29.500Z,22.10
2023-01-21T13:36:56.254Z,22.00
2023-01-21T13:39:28.724Z,21.40
2023-01-21T13:42:27.765Z,21.60
2023-01-21T13:45:39.032Z,21.80
2023-01-21T13:48:21.043Z,23.10
2023-01-21T13:51:18.311Z,22.80
2023-01-21T13:53:53.726Z,22.20
2023-01-21T13:56:42.110Z,22.40
2023-01-21T13:59:21.282Z,22.80
2023-01-21T14:02:09.218Z,22.50
2023-01-21T14:05:03.262Z,22.00
2023-01-21T14:07:41.369Z,22.10
2023-01-21T14:10:33.469Z,21.60
2023-01-21T14:13:24.376Z,21.80
2023-01-21T14:16:13.263Z,22.20
2023-01-21T14:19:01.728Z,21.30
2023-01-21T14:21:49.631Z,22.10
2023-01-21T14:24:40.038Z,22.30
2023-01-21T14:27:46.223Z,23.10
2023-01-21T14:30:22.856Z,23.40
2023-01-21T14:33:02.061Z,23.60
2023-01-21T14:35:53.937Z,23.40
2023-01-21T14:38:29.702Z,23.30
2023-01-21T14:41:12.989Z,23.50
2023-01-21T14:43:44.357Z,23.90
2023-01-21T14:46:26.331Z,24.00
2023-01-21T14:49:06.400Z,24.20
2023-01-21T14:51:46.294Z,23.10
2023-01-21T14:54:21.861Z,23.30
2023-01-21T14:57:17.295Z,23.20
2023-01-21T14:59:46.495Z,23.10
2023-01-21T15:02:32.891Z,23.20
2023-01-21T15:05:27.710Z,23.30
2023-01-21T15:08:20.900Z,23.60
2023-01-21T15:10:55.868Z,24.60
2023-01-21T15:13:35.248Z,25.30
2023-01-21T15:16:15.135Z,25.80
2023-01-21T15:18:50.970Z,26.30
2023-01-21T15:22:05.824Z,24.20
2023-01-21T15:24:35.674Z,25.10
2023-01-21T15:27:28.310Z,24.70
2023-01-21T15:29:55.164Z,24.30
2023-01-21T15:32:30.235Z,24.60
2023-01-21T15:35:18.651Z,24.80
2023-01-21T15:37:50.563Z,25.40
2023-01-21T15:40:21.300Z,26.70
2023-01-21T15:43:00.958Z,27.00
2023-01-21T15:45:37.004Z,27.30
2023-01-21T15:48:30.135Z,27.90
2023-01-21T15:51:19.519Z,27.80
2023-01-21T15:54:11.973Z,27.20
2023-01-21T15:56:57.734Z,27.10
2023-01-21T15:59:53.945Z,28.10
2023-01-21T16:02:32.190Z,29.20
2023-01-21T16:05:01.844Z,29.70
2023-01-21T16:07:59.111Z,29.90
2023-01-21T16:10:44.787Z,30.90
2023-01-21T16:13:23.792Z,31.40
2023-01-21T16:16:11.043Z,31.40
2023-01-21T16:18:51.267Z,31.40
2023-01-21T16:21:33.229Z,31.30
2023-01-21T16:24:07.724Z,32.50
2023-01-21T16:26:34.687Z,33.10
2023-01-21T16:29:01.530Z,33.70
2023-01-21T16:31:28.585Z,34.80
2023-01-21T16:33:55.708Z,36.40
2023-01-21T16:36:22.660Z,36.80
2023-01-21T16:38:49.621Z,37.20
2023-01-21T16:41:23.965Z,37.10
2023-01-21T16:43:54.599Z,37.10
2023-01-21T16:46:25.964Z,36.90
2023-01-21T16:48:57.434Z,37.40
2023-01-21T16:51:32.746Z,36.10
2023-01-21T16:54:30.418Z,36.20
2023-01-21T16:56:58.739Z,35.80
2023-01-21T16:59:44.580Z,36.00
2023-01-21T17:02:28.328Z,35.30
2023-01-21T17:04:57.767Z,33.60
2023-01-21T17:07:32.451Z,33.10
2023-01-21T17:10:29.186Z,33.60
2023-01-21T17:13:16.265Z,35.30
2023-01-21T17:15:58.111Z,35.10
2023-01-21T17:18:31.574Z,33.80
2023-01-21T17:21:16.324Z,34.00
2023-01-21T17:23:43.136Z,34.40
2023-01-21T17:26:29.889Z,35.00
2023-01-21T17:29:10.091Z,35.00
2023-01-21T17:31:42.966Z,34.80
2023-01-21T17:34:15.967Z,35.00
2023-01-21T17:36:48.221Z,35.30
2023-01-21T17:39:17.187Z,33.60
2023-01-21T17:41:46.496Z,31.50
2023-01-21T17:44:22.528Z,31.40
2023-01-21T17:46:53.260Z,30.20
2023-01-21T17:49:23.771Z,29.50
2023-01-21T17:51:54.086Z,29.20
2023-01-21T17:54:27.339Z,29.20
2023-01-21T17:56:56.605Z,28.70
2023-01-21T17:59:23.845Z,28.90
2023-01-21T18:01:50.863Z,28.30
2023-01-21T18:04:17.720Z,28.20
2023-01-21T18:06:45.848Z,29.00
2023-01-21T18:09:17.615Z,28.00
2023-01-21T18:11:45.618Z,27.80
2023-01-21T18:14:20.395Z,28.00
2023-01-21T18:16:47.715Z,27.70
2023-01-21T18:19:33.928Z,27.50
2023-01-21T18:22:02.954Z,27.30
2023-01-21T18:24:30.099Z,27.40
2023-01-21T18:26:58.834Z,27.80
2023-01-21T18:29:30.592Z,27.70
2023-01-21T18:31:58.662Z,27.50
2023-01-21T18:34:25.775Z,27.60
2023-01-21T18:36:52.943Z,27.50
2023-01-21T18:39:20.445Z,27.30
2023-01-21T18:41:47.454Z,27.30
2023-01-21T18:44:15.168Z,27.40
2023-01-21T18:46:43.454Z,27.20
2023-01-21T18:49:19.085Z,27.50
2023-01-21T18:51:47.015Z,27.30
2023-01-21T18:54:15.270Z,27.40
2023-01-21T18:56:43.444Z,27.20
2023-01-21T18:59:16.709Z,27.30
2023-01-21T19:01:43.948Z,27.30
2023-01-21T19:04:19.946Z,27.30
2023-01-21T19:06:47.257Z,27.40
2023-01-21T19:09:20.876Z,27.60
2023-01-21T19:11:48.115Z,27.50
2023-01-21T19:14:14.965Z,27.60
2023-01-21T19:16:42.872Z,27.70
2023-01-21T19:19:11.698Z,27.60
2023-01-21T19:21:39.608Z,27.90
2023-01-21T19:24:08.977Z,27.70
2023-01-21T19:26:37.995Z,27.50
2023-01-21T19:29:07.768Z,28.40
2023-01-21T19:31:34.849Z,27.70
2023-01-21T19:34:01.730Z,27.70
2023-01-21T19:36:28.641Z,27.80
2023-01-21T19:38:57.482Z,27.90
2023-01-21T19:41:24.772Z,27.90
2023-01-21T19:43:51.837Z,27.70
2023-01-21T19:46:19.010Z,27.90
2023-01-21T19:48:49.947Z,27.90
2023-01-21T19:51:17.063Z,27.80
2023-01-21T19:53:43.953Z,27.80
2023-01-21T19:56:18.240Z,27.90
2023-01-21T19:58:45.309Z,28.10
2023-01-21T20:01:12.263Z,28.00
2023-01-21T20:03:48.065Z,28.10
2023-01-21T20:06:23.376Z,28.30
2023-01-21T20:08:50.827Z,28.20
2023-01-21T20:11:18.016Z,28.30
2023-01-21T20:13:45.030Z,28.40
2023-01-21T20:16:18.791Z,28.30
2023-01-21T20:18:46.449Z,28.30
2023-01-21T20:21:13.310Z,28.20
2023-01-21T20:23:40.397Z,28.20
2023-01-21T20:26:12.727Z,28.30
2023-01-21T20:28:47.833Z,28.20
2023-01-21T20:31:14.847Z,28.30
2023-01-21T20:33:43.906Z,28.40
2023-01-21T20:36:23.113Z,28.40
2023-01-21T20:38:51.027Z,28.40
2023-01-21T20:41:17.886Z,28.40
2023-01-21T20:43:44.869Z,28.50
2023-01-21T20:46:24.734Z,29.00
2023-01-21T20:48:54.223Z,29.00
2023-01-21T20:51:21.379Z,29.10
2023-01-21T20:53:48.364Z,29.10
2023-01-21T20:56:21.687Z,29.00
2023-01-21T20:58:48.729Z,28.80
2023-01-21T21:01:17.923Z,28.70
2023-01-21T21:03:45.434Z,28.80
2023-01-21T21:06:17.899Z,28.70
2023-01-21T21:08:45.019Z,28.90
2023-01-21T21:11:15.381Z,28.70
2023-01-21T21:13:42.992Z,28.60
2023-01-21T21:16:28.778Z,28.60
2023-01-21T21:18:58.828Z,28.40
2023-01-21T21:21:25.652Z,28.50
2023-01-21T21:23:53.201Z,28.20
2023-01-21T21:26:25.722Z,28.30
2023-01-21T21:28:57.794Z,28.30
2023-01-21T21:31:26.708Z,28.30
2023-01-21T21:33:53.663Z,28.50
2023-01-21T21:36:24.633Z,28.40
2023-01-21T21:38:52.540Z,28.60
2023-01-21T21:41:39.924Z,28.90
2023-01-21T21:44:08.102Z,28.70
2023-01-21T21:46:54.416Z,28.40
2023-01-21T21:49:21.808Z,28.40
2023-01-21T21:51:48.604Z,28.60
2023-01-21T21:54:16.323Z,28.40
2023-01-21T21:56:43.841Z,28.30
2023-01-21T21:59:12.465Z,28.60
2023-01-21T22:01:42.071Z,28.20
2023-01-21T22:04:09.577Z,28.00
2023-01-21T22:06:36.548Z,28.00
2023-01-21T22:09:03.933Z,28.00
2023-01-21T22:11:31.188Z,28.10
2023-01-21T22:14:03.935Z,28.10
2023-01-21T22:16:31.639Z,28.50
2023-01-21T22:18:59.476Z,28.50
2023-01-21T22:21:28.763Z,28.80
2023-01-21T22:23:56.065Z,28.60
2023-01-21T22:26:25.094Z,28.70
2023-01-21T22:28:52.628Z,28.60
2023-01-21T22:31:22.449Z,28.50
2023-01-21T22:33:50.244Z,28.60
2023-01-21T22:36:22.253Z,28.40
2023-01-21T22:38:50.039Z,28.70
2023-01-21T22:41:20.245Z,28.60
2023-01-21T22:43:48.661Z,28.70
2023-01-21T22:46:23.963Z,28.50
2023-01-21T22:48:51.595Z,28.80
2023-01-21T22:51:22.904Z,28.80
2023-01-21T22:53:50.647Z,28.70
2023-01-21T22:56:21.207Z,28.80
2023-01-21T22:58:50.294Z,28.90
2023-01-21T23:01:31.595Z,29.40
2023-01-21T23:03:59.696Z,29.70
2023-01-21T23:06:26.630Z,29.00
2023-01-21T23:08:53.792Z,29.00
2023-01-21T23:11:21.413Z,29.00
2023-01-21T23:13:49.592Z,28.90
2023-01-21T23:16:21.110Z,29.70
2023-01-21T23:18:48.518Z,29.00
2023-01-21T23:21:18.278Z,29.00
2023-01-21T23:23:45.224Z,29.00
2023-01-21T23:26:13.106Z,28.90
2023-01-21T23:28:40.473Z,28.70
2023-01-21T23:31:13.200Z,28.90
2023-01-21T23:33:41.556Z,29.10
2023-01-21T23:36:11.266Z,29.20
2023-01-21T23:38:38.397Z,29.00
2023-01-21T23:41:07.101Z,28.90
2023-01-21T23:43:34.088Z,29.00
2023-01-21T23:46:00.956Z,29.00
2023-01-21T23:48:27.930Z,29.00
2023-01-21T23:50:54.733Z,29.00
2023-01-21T23:53:21.767Z,29.00
2023-01-21T23:55:48.548Z,29.00
2023-01-21T23:58:15.390Z,28.80
